sensor_id;sensor_type;location;lat;lon;timestamp;P1;durP1;ratioP1;P2;durP2;ratioP2
13250;SDS011;6692;50.710;7.180;2022-12-07T00:01:30;246.73;;;237.43;;
13250;SDS011;6692;50.710;7.180;2022-12-07T00:03:29;242.07;;;233.10;;
13250;SDS011;6692;50.710;7.180;2022-12-07T00:05:30;251.77;;;242.37;;
13250;SDS011;6692;50.710;7.180;2022-12-07T00:07:31;253.57;;;244.00;;
13250;SDS011;6692;50.710;7.180;2022-12-07T00:09:32;255.40;;;245.67;;
13250;SDS011;6692;50.710;7.180;2022-12-07T00:11:33;261.10;;;251.17;;
13250;SDS011;6692;50.710;7.180;2022-12-07T00:13:34;249.83;;;240.17;;
13250;SDS011;6692;50.710;7.180;2022-12-07T00:15:34;262.00;;;252.10;;
13250;SDS011;6692;50.710;7.180;2022-12-07T00:17:35;264.63;;;254.63;;
13250;SDS011;6692;50.710;7.180;2022-12-07T00:19:35;264.77;;;254.90;;
13250;SDS011;6692;50.710;7.180;2022-12-07T00:21:36;262.17;;;252.23;;
13250;SDS011;6692;50.710;7.180;2022-12-07T00:23:37;281.90;;;271.40;;
13250;SDS011;6692;50.710;7.180;2022-12-07T00:25:37;274.60;;;264.53;;
13250;SDS011;6692;50.710;7.180;2022-12-07T00:27:39;279.43;;;268.73;;
13250;SDS011;6692;50.710;7.180;2022-12-07T00:29:39;271.20;;;261.00;;
13250;SDS011;6692;50.710;7.180;2022-12-07T00:31:40;296.60;;;285.93;;
13250;SDS011;6692;50.710;7.180;2022-12-07T00:33:41;274.63;;;264.43;;
13250;SDS011;6692;50.710;7.180;2022-12-07T00:35:41;297.23;;;286.23;;
13250;SDS011;6692;50.710;7.180;2022-12-07T00:37:42;269.23;;;259.43;;
13250;SDS011;6692;50.710;7.180;2022-12-07T00:39:43;296.37;;;285.63;;
13250;SDS011;6692;50.710;7.180;2022-12-07T00:41:43;271.77;;;261.83;;
13250;SDS011;6692;50.710;7.180;2022-12-07T00:43:44;310.63;;;299.33;;
13250;SDS011;6692;50.710;7.180;2022-12-07T00:45:45;286.37;;;275.87;;
13250;SDS011;6692;50.710;7.180;2022-12-07T00:47:45;291.13;;;280.63;;
13250;SDS011;6692;50.710;7.180;2022-12-07T00:49:47;280.13;;;270.00;;
13250;SDS011;6692;50.710;7.180;2022-12-07T00:51:49;293.77;;;283.08;;
13250;SDS011;6692;50.710;7.180;2022-12-07T00:53:49;303.13;;;292.30;;
13250;SDS011;6692;50.710;7.180;2022-12-07T00:55:50;286.40;;;275.87;;
13250;SDS011;6692;50.710;7.180;2022-12-07T00:57:50;284.17;;;273.73;;
13250;SDS011;6692;50.710;7.180;2022-12-07T00:59:51;289.30;;;278.47;;
13250;SDS011;6692;50.710;7.180;2022-12-07T01:01:52;273.53;;;263.73;;
13250;SDS011;6692;50.710;7.180;2022-12-07T01:03:53;284.63;;;274.07;;
13250;SDS011;6692;50.710;7.180;2022-12-07T01:05:55;265.80;;;255.97;;
13250;SDS011;6692;50.710;7.180;2022-12-07T01:07:55;273.02;;;262.90;;
13250;SDS011;6692;50.710;7.180;2022-12-07T01:09:56;280.30;;;269.70;;
13250;SDS011;6692;50.710;7.180;2022-12-07T01:11:56;276.57;;;266.13;;
13250;SDS011;6692;50.710;7.180;2022-12-07T01:13:58;282.30;;;271.97;;
13250;SDS011;6692;50.710;7.180;2022-12-07T01:15:59;268.07;;;258.00;;
13250;SDS011;6692;50.710;7.180;2022-12-07T01:17:59;281.00;;;270.17;;
13250;SDS011;6692;50.710;7.180;2022-12-07T01:20:01;275.50;;;265.12;;
13250;SDS011;6692;50.710;7.180;2022-12-07T01:22:00;274.03;;;263.93;;
13250;SDS011;6692;50.710;7.180;2022-12-07T01:24:02;278.27;;;267.93;;
13250;SDS011;6692;50.710;7.180;2022-12-07T01:26:03;278.90;;;268.20;;
13250;SDS011;6692;50.710;7.180;2022-12-07T01:28:03;273.80;;;263.23;;
13250;SDS011;6692;50.710;7.180;2022-12-07T01:30:04;287.00;;;275.90;;
13250;SDS011;6692;50.710;7.180;2022-12-07T01:32:07;277.63;;;266.90;;
13250;SDS011;6692;50.710;7.180;2022-12-07T01:34:08;266.75;;;256.02;;
13250;SDS011;6692;50.710;7.180;2022-12-07T01:36:17;260.27;;;249.77;;
13250;SDS011;6692;50.710;7.180;2022-12-07T01:38:19;256.80;;;246.15;;
13250;SDS011;6692;50.710;7.180;2022-12-07T01:40:19;271.20;;;259.90;;
13250;SDS011;6692;50.710;7.180;2022-12-07T01:42:20;243.93;;;233.37;;
13250;SDS011;6692;50.710;7.180;2022-12-07T01:44:22;247.57;;;236.97;;
13250;SDS011;6692;50.710;7.180;2022-12-07T01:46:25;251.03;;;240.23;;
13250;SDS011;6692;50.710;7.180;2022-12-07T01:48:26;243.57;;;233.10;;
13250;SDS011;6692;50.710;7.180;2022-12-07T01:50:27;239.87;;;228.97;;
13250;SDS011;6692;50.710;7.180;2022-12-07T01:52:29;239.07;;;228.67;;
13250;SDS011;6692;50.710;7.180;2022-12-07T01:54:28;237.12;;;226.70;;
13250;SDS011;6692;50.710;7.180;2022-12-07T01:56:29;244.87;;;234.17;;
13250;SDS011;6692;50.710;7.180;2022-12-07T01:58:30;253.40;;;242.10;;
13250;SDS011;6692;50.710;7.180;2022-12-07T02:00:30;254.60;;;243.67;;
13250;SDS011;6692;50.710;7.180;2022-12-07T02:02:34;255.20;;;243.87;;
13250;SDS011;6692;50.710;7.180;2022-12-07T02:04:33;236.57;;;226.10;;
13250;SDS011;6692;50.710;7.180;2022-12-07T02:06:34;246.67;;;235.93;;
13250;SDS011;6692;50.710;7.180;2022-12-07T02:08:35;243.17;;;232.33;;
13250;SDS011;6692;50.710;7.180;2022-12-07T02:10:35;250.60;;;239.83;;
13250;SDS011;6692;50.710;7.180;2022-12-07T02:12:37;270.63;;;258.93;;
13250;SDS011;6692;50.710;7.180;2022-12-07T02:14:38;256.42;;;245.27;;
13250;SDS011;6692;50.710;7.180;2022-12-07T02:16:42;263.27;;;251.47;;
13250;SDS011;6692;50.710;7.180;2022-12-07T02:18:48;263.12;;;251.50;;
13250;SDS011;6692;50.710;7.180;2022-12-07T02:21:05;238.85;;;228.10;;
13250;SDS011;6692;50.710;7.180;2022-12-07T02:23:38;251.37;;;239.73;;
13250;SDS011;6692;50.710;7.180;2022-12-07T02:25:44;219.62;;;209.50;;
13250;SDS011;6692;50.710;7.180;2022-12-07T02:27:50;241.23;;;230.02;;
13250;SDS011;6692;50.710;7.180;2022-12-07T02:29:58;250.57;;;239.40;;
13250;SDS011;6692;50.710;7.180;2022-12-07T02:32:04;242.67;;;231.77;;
13250;SDS011;6692;50.710;7.180;2022-12-07T02:34:05;250.60;;;239.52;;
13250;SDS011;6692;50.710;7.180;2022-12-07T02:36:06;259.03;;;247.30;;
13250;SDS011;6692;50.710;7.180;2022-12-07T02:40:30;244.77;;;233.77;;
13250;SDS011;6692;50.710;7.180;2022-12-07T02:42:32;250.95;;;239.82;;
13250;SDS011;6692;50.710;7.180;2022-12-07T02:44:31;257.73;;;246.25;;
13250;SDS011;6692;50.710;7.180;2022-12-07T02:46:33;264.20;;;252.20;;
13250;SDS011;6692;50.710;7.180;2022-12-07T02:48:35;276.12;;;263.92;;
13250;SDS011;6692;50.710;7.180;2022-12-07T02:50:36;298.80;;;286.00;;
13250;SDS011;6692;50.710;7.180;2022-12-07T02:52:36;277.80;;;265.23;;
13250;SDS011;6692;50.710;7.180;2022-12-07T02:54:37;283.90;;;271.80;;
13250;SDS011;6692;50.710;7.180;2022-12-07T02:56:48;290.93;;;278.13;;
13250;SDS011;6692;50.710;7.180;2022-12-07T02:58:54;264.93;;;253.03;;
13250;SDS011;6692;50.710;7.180;2022-12-07T03:01:10;255.03;;;243.57;;
13250;SDS011;6692;50.710;7.180;2022-12-07T03:03:10;270.23;;;258.07;;
13250;SDS011;6692;50.710;7.180;2022-12-07T03:05:13;276.73;;;264.20;;
13250;SDS011;6692;50.710;7.180;2022-12-07T03:07:18;273.37;;;261.33;;
13250;SDS011;6692;50.710;7.180;2022-12-07T03:09:20;280.90;;;268.37;;
13250;SDS011;6692;50.710;7.180;2022-12-07T03:11:22;272.00;;;259.83;;
13250;SDS011;6692;50.710;7.180;2022-12-07T03:13:29;266.02;;;254.20;;
13250;SDS011;6692;50.710;7.180;2022-12-07T03:15:34;262.25;;;250.32;;
13250;SDS011;6692;50.710;7.180;2022-12-07T03:17:33;266.70;;;254.87;;
13250;SDS011;6692;50.710;7.180;2022-12-07T03:19:34;267.37;;;255.13;;
13250;SDS011;6692;50.710;7.180;2022-12-07T03:21:40;267.30;;;255.50;;
13250;SDS011;6692;50.710;7.180;2022-12-07T03:23:40;270.97;;;258.97;;
13250;SDS011;6692;50.710;7.180;2022-12-07T03:25:44;261.07;;;248.93;;
13250;SDS011;6692;50.710;7.180;2022-12-07T03:27:51;252.13;;;240.63;;
13250;SDS011;6692;50.710;7.180;2022-12-07T03:29:57;253.07;;;242.07;;
13250;SDS011;6692;50.710;7.180;2022-12-07T03:31:59;255.27;;;243.70;;
13250;SDS011;6692;50.710;7.180;2022-12-07T03:34:02;259.33;;;247.67;;
13250;SDS011;6692;50.710;7.180;2022-12-07T03:36:05;251.32;;;239.88;;
13250;SDS011;6692;50.710;7.180;2022-12-07T03:38:11;265.60;;;253.80;;
13250;SDS011;6692;50.710;7.180;2022-12-07T03:40:13;266.90;;;254.77;;
13250;SDS011;6692;50.710;7.180;2022-12-07T03:42:14;248.77;;;237.30;;
13250;SDS011;6692;50.710;7.180;2022-12-07T03:44:16;252.98;;;241.80;;
13250;SDS011;6692;50.710;7.180;2022-12-07T03:48:39;244.68;;;233.80;;
13250;SDS011;6692;50.710;7.180;2022-12-07T03:50:42;263.27;;;251.60;;
13250;SDS011;6692;50.710;7.180;2022-12-07T03:52:56;252.90;;;241.70;;
13250;SDS011;6692;50.710;7.180;2022-12-07T03:54:57;263.87;;;251.70;;
13250;SDS011;6692;50.710;7.180;2022-12-07T03:56:57;262.47;;;250.27;;
13250;SDS011;6692;50.710;7.180;2022-12-07T03:58:57;256.77;;;245.13;;
13250;SDS011;6692;50.710;7.180;2022-12-07T04:00:59;263.40;;;251.17;;
13250;SDS011;6692;50.710;7.180;2022-12-07T04:03:00;261.08;;;249.60;;
13250;SDS011;6692;50.710;7.180;2022-12-07T04:05:01;269.40;;;256.83;;
13250;SDS011;6692;50.710;7.180;2022-12-07T04:07:02;263.83;;;251.90;;
13250;SDS011;6692;50.710;7.180;2022-12-07T04:09:03;273.90;;;261.67;;
13250;SDS011;6692;50.710;7.180;2022-12-07T04:11:04;282.33;;;269.80;;
13250;SDS011;6692;50.710;7.180;2022-12-07T04:13:05;264.00;;;252.30;;
13250;SDS011;6692;50.710;7.180;2022-12-07T04:15:06;286.90;;;274.37;;
13250;SDS011;6692;50.710;7.180;2022-12-07T04:17:08;286.65;;;274.15;;
13250;SDS011;6692;50.710;7.180;2022-12-07T04:19:08;296.00;;;283.10;;
13250;SDS011;6692;50.710;7.180;2022-12-07T04:21:09;277.63;;;265.53;;
13250;SDS011;6692;50.710;7.180;2022-12-07T04:23:10;269.70;;;257.40;;
13250;SDS011;6692;50.710;7.180;2022-12-07T04:25:10;257.83;;;245.97;;
13250;SDS011;6692;50.710;7.180;2022-12-07T04:27:11;258.83;;;246.87;;
13250;SDS011;6692;50.710;7.180;2022-12-07T04:29:12;265.90;;;254.10;;
13250;SDS011;6692;50.710;7.180;2022-12-07T04:31:12;253.47;;;241.73;;
13250;SDS011;6692;50.710;7.180;2022-12-07T04:33:13;243.57;;;232.27;;
13250;SDS011;6692;50.710;7.180;2022-12-07T04:35:14;254.23;;;243.13;;
13250;SDS011;6692;50.710;7.180;2022-12-07T04:37:15;261.30;;;249.80;;
13250;SDS011;6692;50.710;7.180;2022-12-07T04:39:20;272.43;;;260.30;;
13250;SDS011;6692;50.710;7.180;2022-12-07T04:41:19;263.87;;;251.87;;
13250;SDS011;6692;50.710;7.180;2022-12-07T04:43:20;267.07;;;255.00;;
13250;SDS011;6692;50.710;7.180;2022-12-07T04:45:21;276.37;;;264.03;;
13250;SDS011;6692;50.710;7.180;2022-12-07T04:47:21;255.80;;;243.87;;
13250;SDS011;6692;50.710;7.180;2022-12-07T04:49:23;247.77;;;236.33;;
13250;SDS011;6692;50.710;7.180;2022-12-07T04:51:25;255.53;;;243.83;;
13250;SDS011;6692;50.710;7.180;2022-12-07T04:53:26;257.65;;;245.98;;
13250;SDS011;6692;50.710;7.180;2022-12-07T04:55:26;267.03;;;254.87;;
13250;SDS011;6692;50.710;7.180;2022-12-07T04:57:27;259.33;;;247.40;;
13250;SDS011;6692;50.710;7.180;2022-12-07T04:59:27;254.70;;;243.00;;
13250;SDS011;6692;50.710;7.180;2022-12-07T05:01:28;255.43;;;243.70;;
13250;SDS011;6692;50.710;7.180;2022-12-07T05:03:29;262.27;;;250.30;;
13250;SDS011;6692;50.710;7.180;2022-12-07T05:05:29;257.57;;;245.73;;
13250;SDS011;6692;50.710;7.180;2022-12-07T05:07:30;258.20;;;246.23;;
13250;SDS011;6692;50.710;7.180;2022-12-07T05:09:31;252.87;;;240.97;;
13250;SDS011;6692;50.710;7.180;2022-12-07T05:11:31;256.13;;;244.23;;
13250;SDS011;6692;50.710;7.180;2022-12-07T05:13:38;252.98;;;241.77;;
13250;SDS011;6692;50.710;7.180;2022-12-07T05:15:40;264.60;;;252.67;;
13250;SDS011;6692;50.710;7.180;2022-12-07T05:17:41;253.57;;;241.97;;
13250;SDS011;6692;50.710;7.180;2022-12-07T05:19:42;264.17;;;252.07;;
13250;SDS011;6692;50.710;7.180;2022-12-07T05:21:43;281.47;;;268.93;;
13250;SDS011;6692;50.710;7.180;2022-12-07T05:23:43;272.13;;;259.60;;
13250;SDS011;6692;50.710;7.180;2022-12-07T05:25:44;270.20;;;258.17;;
13250;SDS011;6692;50.710;7.180;2022-12-07T05:27:45;279.93;;;267.60;;
13250;SDS011;6692;50.710;7.180;2022-12-07T05:29:45;282.47;;;269.53;;
13250;SDS011;6692;50.710;7.180;2022-12-07T05:31:46;275.63;;;263.13;;
13250;SDS011;6692;50.710;7.180;2022-12-07T05:33:47;274.20;;;262.03;;
13250;SDS011;6692;50.710;7.180;2022-12-07T05:35:47;282.37;;;269.73;;
13250;SDS011;6692;50.710;7.180;2022-12-07T05:37:48;288.93;;;276.47;;
13250;SDS011;6692;50.710;7.180;2022-12-07T05:39:49;271.83;;;259.57;;
13250;SDS011;6692;50.710;7.180;2022-12-07T05:41:49;262.80;;;250.47;;
13250;SDS011;6692;50.710;7.180;2022-12-07T05:43:57;254.03;;;242.43;;
13250;SDS011;6692;50.710;7.180;2022-12-07T05:45:58;264.35;;;252.75;;
13250;SDS011;6692;50.710;7.180;2022-12-07T05:47:58;259.63;;;248.00;;
13250;SDS011;6692;50.710;7.180;2022-12-07T05:50:01;267.73;;;255.53;;
13250;SDS011;6692;50.710;7.180;2022-12-07T05:52:02;264.87;;;252.80;;
13250;SDS011;6692;50.710;7.180;2022-12-07T05:54:03;267.03;;;254.87;;
13250;SDS011;6692;50.710;7.180;2022-12-07T05:56:04;269.53;;;257.20;;
13250;SDS011;6692;50.710;7.180;2022-12-07T05:58:06;273.07;;;261.07;;
13250;SDS011;6692;50.710;7.180;2022-12-07T06:00:14;247.30;;;235.93;;
13250;SDS011;6692;50.710;7.180;2022-12-07T06:02:15;257.17;;;244.73;;
13250;SDS011;6692;50.710;7.180;2022-12-07T06:04:16;238.90;;;228.00;;
13250;SDS011;6692;50.710;7.180;2022-12-07T06:06:16;264.07;;;252.30;;
13250;SDS011;6692;50.710;7.180;2022-12-07T06:08:17;265.40;;;253.37;;
13250;SDS011;6692;50.710;7.180;2022-12-07T06:10:17;274.90;;;262.67;;
13250;SDS011;6692;50.710;7.180;2022-12-07T06:12:18;271.00;;;258.83;;
13250;SDS011;6692;50.710;7.180;2022-12-07T06:14:25;262.37;;;250.40;;
13250;SDS011;6692;50.710;7.180;2022-12-07T06:16:26;274.60;;;262.30;;
13250;SDS011;6692;50.710;7.180;2022-12-07T06:18:27;263.37;;;251.57;;
13250;SDS011;6692;50.710;7.180;2022-12-07T06:20:28;260.43;;;248.57;;
13250;SDS011;6692;50.710;7.180;2022-12-07T06:22:28;264.37;;;252.83;;
13250;SDS011;6692;50.710;7.180;2022-12-07T06:24:30;251.40;;;239.57;;
13250;SDS011;6692;50.710;7.180;2022-12-07T06:26:30;258.40;;;246.47;;
13250;SDS011;6692;50.710;7.180;2022-12-07T06:28:31;238.97;;;227.73;;
13250;SDS011;6692;50.710;7.180;2022-12-07T06:30:32;243.60;;;232.67;;
13250;SDS011;6692;50.710;7.180;2022-12-07T06:32:33;251.43;;;240.37;;
13250;SDS011;6692;50.710;7.180;2022-12-07T06:34:33;249.40;;;237.93;;
13250;SDS011;6692;50.710;7.180;2022-12-07T06:36:34;247.43;;;236.20;;
13250;SDS011;6692;50.710;7.180;2022-12-07T06:38:34;247.53;;;235.83;;
13250;SDS011;6692;50.710;7.180;2022-12-07T06:40:36;238.27;;;227.40;;
13250;SDS011;6692;50.710;7.180;2022-12-07T06:42:36;243.80;;;232.73;;
13250;SDS011;6692;50.710;7.180;2022-12-07T06:44:37;253.50;;;241.80;;
13250;SDS011;6692;50.710;7.180;2022-12-07T06:46:38;253.50;;;242.17;;
13250;SDS011;6692;50.710;7.180;2022-12-07T06:48:38;262.77;;;251.17;;
13250;SDS011;6692;50.710;7.180;2022-12-07T06:50:40;253.37;;;241.87;;
13250;SDS011;6692;50.710;7.180;2022-12-07T06:52:40;264.50;;;252.57;;
13250;SDS011;6692;50.710;7.180;2022-12-07T06:54:41;255.03;;;243.47;;
13250;SDS011;6692;50.710;7.180;2022-12-07T06:56:42;256.80;;;245.57;;
13250;SDS011;6692;50.710;7.180;2022-12-07T06:58:42;242.27;;;230.93;;
13250;SDS011;6692;50.710;7.180;2022-12-07T07:00:43;245.23;;;234.27;;
13250;SDS011;6692;50.710;7.180;2022-12-07T07:02:44;234.43;;;223.83;;
13250;SDS011;6692;50.710;7.180;2022-12-07T07:04:44;249.53;;;238.50;;
13250;SDS011;6692;50.710;7.180;2022-12-07T07:06:45;230.43;;;219.63;;
13250;SDS011;6692;50.710;7.180;2022-12-07T07:08:46;250.83;;;239.73;;
13250;SDS011;6692;50.710;7.180;2022-12-07T07:10:47;257.63;;;246.30;;
13250;SDS011;6692;50.710;7.180;2022-12-07T07:12:48;236.93;;;226.20;;
13250;SDS011;6692;50.710;7.180;2022-12-07T07:14:48;244.17;;;233.23;;
13250;SDS011;6692;50.710;7.180;2022-12-07T07:16:49;247.37;;;236.60;;
13250;SDS011;6692;50.710;7.180;2022-12-07T07:18:50;241.20;;;230.70;;
13250;SDS011;6692;50.710;7.180;2022-12-07T07:20:51;237.20;;;226.30;;
13250;SDS011;6692;50.710;7.180;2022-12-07T07:22:53;238.23;;;227.53;;
13250;SDS011;6692;50.710;7.180;2022-12-07T07:24:52;251.30;;;240.50;;
13250;SDS011;6692;50.710;7.180;2022-12-07T07:26:52;239.33;;;228.73;;
13250;SDS011;6692;50.710;7.180;2022-12-07T07:28:53;257.80;;;246.80;;
13250;SDS011;6692;50.710;7.180;2022-12-07T07:30:54;256.73;;;245.77;;
13250;SDS011;6692;50.710;7.180;2022-12-07T07:32:56;246.97;;;236.47;;
13250;SDS011;6692;50.710;7.180;2022-12-07T07:34:56;265.52;;;254.02;;
13250;SDS011;6692;50.710;7.180;2022-12-07T07:36:57;252.17;;;241.33;;
13250;SDS011;6692;50.710;7.180;2022-12-07T07:38:57;247.73;;;236.93;;
13250;SDS011;6692;50.710;7.180;2022-12-07T07:40:59;253.20;;;242.23;;
13250;SDS011;6692;50.710;7.180;2022-12-07T07:42:59;249.32;;;238.77;;
13250;SDS011;6692;50.710;7.180;2022-12-07T07:45:00;274.80;;;263.30;;
13250;SDS011;6692;50.710;7.180;2022-12-07T07:47:01;268.00;;;257.00;;
13250;SDS011;6692;50.710;7.180;2022-12-07T07:49:01;277.67;;;266.37;;
13250;SDS011;6692;50.710;7.180;2022-12-07T07:51:05;278.50;;;267.23;;
13250;SDS011;6692;50.710;7.180;2022-12-07T07:53:05;272.33;;;261.30;;
13250;SDS011;6692;50.710;7.180;2022-12-07T07:55:06;284.43;;;272.80;;
13250;SDS011;6692;50.710;7.180;2022-12-07T07:57:06;284.00;;;272.65;;
13250;SDS011;6692;50.710;7.180;2022-12-07T07:59:07;300.00;;;288.17;;
13250;SDS011;6692;50.710;7.180;2022-12-07T08:01:08;299.80;;;287.30;;
13250;SDS011;6692;50.710;7.180;2022-12-07T08:03:08;295.53;;;283.47;;
13250;SDS011;6692;50.710;7.180;2022-12-07T08:05:11;278.57;;;267.13;;
13250;SDS011;6692;50.710;7.180;2022-12-07T08:07:11;274.40;;;263.40;;
13250;SDS011;6692;50.710;7.180;2022-12-07T08:09:12;281.27;;;269.80;;
13250;SDS011;6692;50.710;7.180;2022-12-07T08:11:13;278.00;;;266.33;;
13250;SDS011;6692;50.710;7.180;2022-12-07T08:13:15;285.20;;;273.53;;
13250;SDS011;6692;50.710;7.180;2022-12-07T08:15:15;278.80;;;267.17;;
13250;SDS011;6692;50.710;7.180;2022-12-07T08:17:16;273.13;;;261.77;;
13250;SDS011;6692;50.710;7.180;2022-12-07T08:19:16;262.90;;;251.97;;
13250;SDS011;6692;50.710;7.180;2022-12-07T08:21:19;285.30;;;273.57;;
13250;SDS011;6692;50.710;7.180;2022-12-07T08:23:19;267.03;;;256.03;;
13250;SDS011;6692;50.710;7.180;2022-12-07T08:25:20;259.00;;;247.77;;
13250;SDS011;6692;50.710;7.180;2022-12-07T08:27:21;265.53;;;254.53;;
13250;SDS011;6692;50.710;7.180;2022-12-07T08:29:21;258.37;;;247.33;;
13250;SDS011;6692;50.710;7.180;2022-12-07T08:31:23;264.50;;;253.13;;
13250;SDS011;6692;50.710;7.180;2022-12-07T08:33:23;270.53;;;258.43;;
13250;SDS011;6692;50.710;7.180;2022-12-07T08:35:24;263.83;;;252.77;;
13250;SDS011;6692;50.710;7.180;2022-12-07T08:37:25;272.83;;;261.23;;
13250;SDS011;6692;50.710;7.180;2022-12-07T08:39:25;262.93;;;251.73;;
13250;SDS011;6692;50.710;7.180;2022-12-07T08:41:26;257.80;;;246.47;;
13250;SDS011;6692;50.710;7.180;2022-12-07T08:43:27;241.97;;;231.37;;
13250;SDS011;6692;50.710;7.180;2022-12-07T08:45:27;259.33;;;248.33;;
13250;SDS011;6692;50.710;7.180;2022-12-07T08:47:28;281.30;;;269.73;;
13250;SDS011;6692;50.710;7.180;2022-12-07T08:49:32;256.00;;;244.77;;
13250;SDS011;6692;50.710;7.180;2022-12-07T08:51:33;268.98;;;257.55;;
13250;SDS011;6692;50.710;7.180;2022-12-07T08:53:34;272.67;;;261.20;;
13250;SDS011;6692;50.710;7.180;2022-12-07T08:55:35;284.73;;;272.93;;
13250;SDS011;6692;50.710;7.180;2022-12-07T08:57:35;284.27;;;272.30;;
13250;SDS011;6692;50.710;7.180;2022-12-07T08:59:37;307.17;;;294.80;;
13250;SDS011;6692;50.710;7.180;2022-12-07T09:01:38;321.92;;;308.95;;
13250;SDS011;6692;50.710;7.180;2022-12-07T09:03:39;303.03;;;290.57;;
13250;SDS011;6692;50.710;7.180;2022-12-07T09:05:39;298.57;;;286.33;;
13250;SDS011;6692;50.710;7.180;2022-12-07T09:07:40;288.50;;;276.27;;
13250;SDS011;6692;50.710;7.180;2022-12-07T09:09:41;282.23;;;270.63;;
13250;SDS011;6692;50.710;7.180;2022-12-07T09:11:41;275.43;;;264.00;;
13250;SDS011;6692;50.710;7.180;2022-12-07T09:13:42;270.33;;;259.23;;
13250;SDS011;6692;50.710;7.180;2022-12-07T09:15:43;269.17;;;257.83;;
13250;SDS011;6692;50.710;7.180;2022-12-07T09:17:43;270.53;;;259.40;;
13250;SDS011;6692;50.710;7.180;2022-12-07T09:19:44;279.53;;;267.87;;
13250;SDS011;6692;50.710;7.180;2022-12-07T09:21:45;272.10;;;260.97;;
13250;SDS011;6692;50.710;7.180;2022-12-07T09:23:46;274.73;;;263.20;;
13250;SDS011;6692;50.710;7.180;2022-12-07T09:25:47;273.40;;;261.83;;
13250;SDS011;6692;50.710;7.180;2022-12-07T09:27:47;276.27;;;264.80;;
13250;SDS011;6692;50.710;7.180;2022-12-07T09:29:48;308.70;;;296.43;;
13250;SDS011;6692;50.710;7.180;2022-12-07T09:31:49;314.20;;;301.30;;
13250;SDS011;6692;50.710;7.180;2022-12-07T09:33:54;313.73;;;301.23;;
13250;SDS011;6692;50.710;7.180;2022-12-07T09:35:56;295.33;;;283.23;;
13250;SDS011;6692;50.710;7.180;2022-12-07T09:37:57;292.53;;;280.80;;
13250;SDS011;6692;50.710;7.180;2022-12-07T09:39:57;296.80;;;284.50;;
13250;SDS011;6692;50.710;7.180;2022-12-07T09:41:58;285.03;;;273.83;;
13250;SDS011;6692;50.710;7.180;2022-12-07T09:44:03;270.47;;;259.67;;
13250;SDS011;6692;50.710;7.180;2022-12-07T09:46:01;269.13;;;258.53;;
13250;SDS011;6692;50.710;7.180;2022-12-07T09:48:02;270.03;;;259.17;;
13250;SDS011;6692;50.710;7.180;2022-12-07T09:50:03;262.93;;;252.50;;
13250;SDS011;6692;50.710;7.180;2022-12-07T09:54:19;245.23;;;235.07;;
13250;SDS011;6692;50.710;7.180;2022-12-07T09:56:20;269.40;;;258.90;;
13250;SDS011;6692;50.710;7.180;2022-12-07T09:58:23;287.23;;;275.50;;
13250;SDS011;6692;50.710;7.180;2022-12-07T10:00:23;290.00;;;278.33;;
13250;SDS011;6692;50.710;7.180;2022-12-07T10:02:25;293.93;;;282.20;;
13250;SDS011;6692;50.710;7.180;2022-12-07T10:04:32;278.70;;;267.80;;
13250;SDS011;6692;50.710;7.180;2022-12-07T10:06:32;288.13;;;276.77;;
13250;SDS011;6692;50.710;7.180;2022-12-07T10:08:33;313.33;;;301.07;;
13250;SDS011;6692;50.710;7.180;2022-12-07T10:10:34;295.27;;;283.40;;
13250;SDS011;6692;50.710;7.180;2022-12-07T10:12:52;293.03;;;281.40;;
13250;SDS011;6692;50.710;7.180;2022-12-07T10:14:53;272.25;;;260.85;;
13250;SDS011;6692;50.710;7.180;2022-12-07T10:16:48;280.23;;;269.10;;
13250;SDS011;6692;50.710;7.180;2022-12-07T10:18:50;262.87;;;252.30;;
13250;SDS011;6692;50.710;7.180;2022-12-07T10:20:50;282.23;;;270.70;;
13250;SDS011;6692;50.710;7.180;2022-12-07T10:23:03;269.77;;;258.90;;
13250;SDS011;6692;50.710;7.180;2022-12-07T10:25:08;257.77;;;247.67;;
13250;SDS011;6692;50.710;7.180;2022-12-07T10:27:30;277.27;;;266.00;;
13250;SDS011;6692;50.710;7.180;2022-12-07T10:29:29;276.73;;;265.97;;
13250;SDS011;6692;50.710;7.180;2022-12-07T10:31:30;251.13;;;241.20;;
13250;SDS011;6692;50.710;7.180;2022-12-07T10:33:33;275.37;;;264.30;;
13250;SDS011;6692;50.710;7.180;2022-12-07T10:35:33;266.60;;;256.30;;
13250;SDS011;6692;50.710;7.180;2022-12-07T10:37:35;266.10;;;255.70;;
13250;SDS011;6692;50.710;7.180;2022-12-07T10:39:45;279.90;;;268.93;;
13250;SDS011;6692;50.710;7.180;2022-12-07T10:43:54;261.33;;;251.13;;
13250;SDS011;6692;50.710;7.180;2022-12-07T10:46:07;265.13;;;254.63;;
13250;SDS011;6692;50.710;7.180;2022-12-07T10:48:15;267.57;;;257.10;;
13250;SDS011;6692;50.710;7.180;2022-12-07T10:50:37;261.03;;;251.10;;
13250;SDS011;6692;50.710;7.180;2022-12-07T10:52:41;259.23;;;248.03;;
13250;SDS011;6692;50.710;7.180;2022-12-07T10:57:23;190.20;;;182.60;;
13250;SDS011;6692;50.710;7.180;2022-12-07T11:02:06;185.23;;;177.73;;
13250;SDS011;6692;50.710;7.180;2022-12-07T11:06:23;190.33;;;182.60;;
13250;SDS011;6692;50.710;7.180;2022-12-07T11:10:31;211.97;;;203.57;;
13250;SDS011;6692;50.710;7.180;2022-12-07T11:15:01;240.77;;;231.07;;
13250;SDS011;6692;50.710;7.180;2022-12-07T11:17:18;238.70;;;229.17;;
13250;SDS011;6692;50.710;7.180;2022-12-07T11:21:53;245.67;;;235.87;;
13250;SDS011;6692;50.710;7.180;2022-12-07T11:23:56;250.33;;;240.63;;
13250;SDS011;6692;50.710;7.180;2022-12-07T11:26:20;253.50;;;243.30;;
13250;SDS011;6692;50.710;7.180;2022-12-07T11:28:28;232.40;;;223.47;;
13250;SDS011;6692;50.710;7.180;2022-12-07T11:30:51;235.23;;;226.40;;
13250;SDS011;6692;50.710;7.180;2022-12-07T11:32:52;243.73;;;234.50;;
13250;SDS011;6692;50.710;7.180;2022-12-07T11:35:05;233.70;;;224.73;;
13250;SDS011;6692;50.710;7.180;2022-12-07T11:37:20;222.73;;;214.10;;
13250;SDS011;6692;50.710;7.180;2022-12-07T11:39:26;235.27;;;226.37;;
13250;SDS011;6692;50.710;7.180;2022-12-07T11:41:27;250.30;;;240.73;;
13250;SDS011;6692;50.710;7.180;2022-12-07T11:43:31;253.50;;;243.93;;
13250;SDS011;6692;50.710;7.180;2022-12-07T11:45:33;261.97;;;252.13;;
13250;SDS011;6692;50.710;7.180;2022-12-07T11:47:36;253.33;;;243.90;;
13250;SDS011;6692;50.710;7.180;2022-12-07T11:49:53;246.93;;;237.57;;
13250;SDS011;6692;50.710;7.180;2022-12-07T11:51:52;278.13;;;267.77;;
13250;SDS011;6692;50.710;7.180;2022-12-07T11:53:55;274.90;;;264.57;;
13250;SDS011;6692;50.710;7.180;2022-12-07T11:56:00;261.03;;;251.40;;
13250;SDS011;6692;50.710;7.180;2022-12-07T11:58:23;245.10;;;236.30;;
13250;SDS011;6692;50.710;7.180;2022-12-07T12:00:38;218.07;;;209.67;;
13250;SDS011;6692;50.710;7.180;2022-12-07T12:02:42;239.77;;;230.87;;
13250;SDS011;6692;50.710;7.180;2022-12-07T12:04:47;227.10;;;218.80;;
13250;SDS011;6692;50.710;7.180;2022-12-07T12:07:03;203.63;;;196.07;;
13250;SDS011;6692;50.710;7.180;2022-12-07T12:09:11;196.07;;;188.67;;